createdAt,value
2017-07-21T00:01:40.325Z,63.10
2017-07-21T00:04:07.781Z,63.10
2017-07-21T00:06:35.213Z,63.20
2017-07-21T00:09:02.668Z,63.70
2017-07-21T00:11:30.094Z,63.70
2017-07-21T00:13:57.552Z,63.70
2017-07-21T00:16:24.993Z,64.00
2017-07-21T00:18:52.436Z,64.40
2017-07-21T00:21:19.875Z,64.70
2017-07-21T00:23:47.315Z,64.70
2017-07-21T00:26:14.752Z,65.20
2017-07-21T00:28:42.185Z,65.30
2017-07-21T00:31:09.641Z,65.20
2017-07-21T00:33:37.080Z,65.00
2017-07-21T00:36:04.530Z,64.90
2017-07-21T00:38:31.968Z,65.10
2017-07-21T00:40:59.406Z,65.00
2017-07-21T00:43:26.849Z,65.10
2017-07-21T00:45:54.281Z,65.30
2017-07-21T00:48:21.723Z,65.20
2017-07-21T00:50:49.184Z,64.80
2017-07-21T00:53:16.628Z,64.30
2017-07-21T00:55:44.072Z,64.00
2017-07-21T00:58:11.538Z,63.80
2017-07-21T01:00:38.990Z,64.00
2017-07-21T01:03:06.421Z,64.10
2017-07-21T01:05:33.946Z,63.90
2017-07-21T01:08:01.390Z,63.90
2017-07-21T01:10:28.895Z,63.60
2017-07-21T01:12:56.353Z,63.70
2017-07-21T01:15:23.779Z,63.60
2017-07-21T01:17:51.294Z,63.30
2017-07-21T01:20:18.734Z,63.30
2017-07-21T01:22:46.182Z,63.00
2017-07-21T01:25:13.725Z,63.00
2017-07-21T01:27:41.152Z,63.00
2017-07-21T01:30:08.591Z,63.20
2017-07-21T01:32:36.030Z,63.40
2017-07-21T01:35:03.451Z,63.40
2017-07-21T01:37:30.945Z,63.50
2017-07-21T01:39:58.396Z,63.80
2017-07-21T01:42:26.589Z,64.50
2017-07-21T01:44:54.069Z,64.40
2017-07-21T01:47:21.517Z,64.80
2017-07-21T01:49:48.951Z,65.10
2017-07-21T01:52:16.397Z,64.80
2017-07-21T01:54:43.832Z,64.60
2017-07-21T01:57:11.315Z,64.30
2017-07-21T01:59:38.740Z,64.20
2017-07-21T02:02:06.180Z,64.20
2017-07-21T02:04:33.625Z,64.40
2017-07-21T02:07:01.060Z,64.40
2017-07-21T02:09:28.502Z,64.40
2017-07-21T02:11:55.965Z,64.70
2017-07-21T02:14:23.413Z,64.80
2017-07-21T02:16:50.851Z,65.00
2017-07-21T02:19:18.280Z,64.70
2017-07-21T02:21:45.726Z,64.40
2017-07-21T02:24:13.154Z,65.10
2017-07-21T02:26:40.587Z,64.50
2017-07-21T02:29:08.033Z,64.40
2017-07-21T02:31:35.460Z,64.40
2017-07-21T02:34:02.956Z,64.50
2017-07-21T02:36:30.505Z,64.40
2017-07-21T02:38:57.954Z,64.80
2017-07-21T02:41:25.481Z,65.10
2017-07-21T02:43:52.908Z,65.10
2017-07-21T02:46:20.356Z,64.90
2017-07-21T02:48:47.788Z,64.80
2017-07-21T02:51:15.217Z,64.70
2017-07-21T02:53:42.701Z,64.50
2017-07-21T02:56:10.137Z,64.50
2017-07-21T02:58:37.599Z,64.30
2017-07-21T03:01:05.037Z,63.90
2017-07-21T03:03:32.477Z,64.00
2017-07-21T03:05:59.917Z,64.00
2017-07-21T03:08:27.340Z,64.20
2017-07-21T03:10:54.788Z,64.20
2017-07-21T03:13:22.264Z,64.20
2017-07-21T03:15:50.460Z,64.20
2017-07-21T03:18:17.891Z,64.20
2017-07-21T03:20:46.348Z,64.50
2017-07-21T03:23:22.710Z,64.50
2017-07-21T03:25:50.195Z,63.90
2017-07-21T03:28:17.653Z,63.60
2017-07-21T03:30:45.213Z,63.60
2017-07-21T03:33:12.627Z,63.90
2017-07-21T03:35:40.073Z,64.00
2017-07-21T03:38:07.613Z,64.10
2017-07-21T03:40:35.159Z,64.30
2017-07-21T03:43:02.600Z,63.90
2017-07-21T03:45:30.037Z,64.10
2017-07-21T03:47:57.667Z,64.00
2017-07-21T03:50:25.114Z,64.20
2017-07-21T03:52:52.585Z,64.60
2017-07-21T03:55:20.053Z,64.80
2017-07-21T03:57:47.621Z,64.90
2017-07-21T04:00:15.081Z,65.20
2017-07-21T04:02:42.619Z,65.10
2017-07-21T04:05:10.056Z,65.20
2017-07-21T04:07:37.505Z,65.20
2017-07-21T04:10:04.947Z,65.10
2017-07-21T04:12:32.403Z,65.30
2017-07-21T04:14:59.953Z,65.50
2017-07-21T04:17:27.385Z,65.50
2017-07-21T04:19:54.837Z,65.50
2017-07-21T04:22:22.273Z,65.50
2017-07-21T04:24:49.747Z,65.50
2017-07-21T04:27:17.189Z,65.40
2017-07-21T04:29:45.381Z,65.40
2017-07-21T04:32:12.859Z,65.40
2017-07-21T04:34:40.360Z,65.20
2017-07-21T04:37:07.896Z,64.90
2017-07-21T04:39:35.398Z,64.60
2017-07-21T04:42:02.829Z,64.40
2017-07-21T04:44:30.278Z,64.20
2017-07-21T04:46:57.720Z,64.40
2017-07-21T04:49:25.163Z,64.40
2017-07-21T04:51:52.601Z,64.00
2017-07-21T04:54:20.032Z,63.90
2017-07-21T04:56:48.240Z,64.00
2017-07-21T04:59:15.671Z,64.00
2017-07-21T05:01:43.138Z,64.10
2017-07-21T05:04:10.573Z,64.00
2017-07-21T05:06:38.009Z,63.60
2017-07-21T05:09:05.481Z,63.80
2017-07-21T05:11:33.037Z,63.50
2017-07-21T05:14:01.285Z,64.20
2017-07-21T05:16:28.840Z,63.50
2017-07-21T05:18:57.097Z,63.10
2017-07-21T05:21:24.658Z,62.50
2017-07-21T05:23:52.860Z,61.60
2017-07-21T05:26:20.341Z,61.60
2017-07-21T05:28:47.884Z,61.20
2017-07-21T05:31:15.424Z,60.50
2017-07-21T05:33:42.864Z,60.20
2017-07-21T05:36:10.296Z,59.70
2017-07-21T05:38:37.774Z,58.90
2017-07-21T05:41:05.972Z,57.20
2017-07-21T05:43:33.408Z,57.00
2017-07-21T05:46:00.840Z,55.60
2017-07-21T05:48:28.284Z,54.90
2017-07-21T05:50:55.861Z,54.20
2017-07-21T05:53:23.279Z,53.20
2017-07-21T05:55:50.773Z,52.90
2017-07-21T05:58:18.216Z,52.10
2017-07-21T06:00:45.643Z,51.00
2017-07-21T06:03:13.104Z,50.50
2017-07-21T06:05:40.635Z,50.20
2017-07-21T06:08:08.084Z,49.10
2017-07-21T06:10:35.559Z,47.90
2017-07-21T06:13:03.801Z,47.50
2017-07-21T06:15:33.280Z,47.50
2017-07-21T06:18:00.719Z,46.70
2017-07-21T06:20:28.171Z,46.10
2017-07-21T06:22:55.604Z,45.30
2017-07-21T06:25:23.027Z,45.50
2017-07-21T06:27:50.491Z,44.90
2017-07-21T06:30:17.937Z,43.50
2017-07-21T06:32:45.380Z,43.60
2017-07-21T06:35:12.851Z,42.70
2017-07-21T06:37:41.052Z,43.20
2017-07-21T06:40:08.493Z,43.20
2017-07-21T06:42:35.919Z,42.30
2017-07-21T06:45:03.386Z,41.10
2017-07-21T06:47:30.817Z,40.30
2017-07-21T06:49:58.270Z,39.70
2017-07-21T06:52:25.703Z,38.70
2017-07-21T06:54:53.144Z,37.30
2017-07-21T06:57:20.606Z,37.40
2017-07-21T06:59:48.070Z,37.10
2017-07-21T07:02:15.498Z,36.50
2017-07-21T07:04:43.804Z,35.70
2017-07-21T07:07:12.032Z,37.70
2017-07-21T07:09:39.581Z,37.70
2017-07-21T07:12:07.032Z,37.40
2017-07-21T07:14:34.510Z,37.90
2017-07-21T07:17:01.996Z,37.00
2017-07-21T07:19:29.453Z,36.80
2017-07-21T07:21:56.917Z,37.50
2017-07-21T07:24:25.160Z,36.00
2017-07-21T07:26:52.603Z,35.90
2017-07-21T07:29:20.041Z,34.30
2017-07-21T07:31:47.592Z,35.10
2017-07-21T07:34:15.041Z,35.00
2017-07-21T07:36:42.481Z,34.10
2017-07-21T07:39:09.916Z,34.60
2017-07-21T07:41:37.442Z,34.20
2017-07-21T07:44:04.880Z,34.60
2017-07-21T07:46:32.353Z,35.60
2017-07-21T07:48:59.790Z,36.10
2017-07-21T07:51:27.335Z,37.30
2017-07-21T07:53:54.857Z,36.00
2017-07-21T07:56:22.288Z,36.10
2017-07-21T07:58:49.761Z,35.50
2017-07-21T08:01:17.202Z,34.20
2017-07-21T08:03:44.633Z,33.40
2017-07-21T08:06:12.557Z,32.70
2017-07-21T08:08:40.017Z,31.50
2017-07-21T08:11:07.452Z,30.60
2017-07-21T08:13:34.872Z,30.70
2017-07-21T08:16:02.305Z,31.70
2017-07-21T08:18:29.746Z,31.70
2017-07-21T08:20:57.265Z,31.20
2017-07-21T08:23:24.725Z,31.30
2017-07-21T08:25:52.919Z,32.50
2017-07-21T08:28:20.352Z,32.40
2017-07-21T08:30:47.794Z,30.80
2017-07-21T08:33:15.224Z,31.10
2017-07-21T08:35:42.680Z,32.60
2017-07-21T08:38:10.176Z,31.70
2017-07-21T08:40:37.639Z,31.00
2017-07-21T08:43:05.838Z,31.10
2017-07-21T08:45:33.270Z,30.50
2017-07-21T08:48:00.750Z,30.40
2017-07-21T08:50:28.184Z,30.10
2017-07-21T08:52:55.616Z,30.50
2017-07-21T08:55:23.137Z,30.80
2017-07-21T08:57:50.632Z,30.50
2017-07-21T09:00:18.920Z,30.60
2017-07-21T09:02:47.123Z,31.00
2017-07-21T09:05:14.565Z,31.60
2017-07-21T09:07:42.056Z,30.40
2017-07-21T09:10:09.489Z,30.30
2017-07-21T09:12:36.937Z,30.10
2017-07-21T09:15:04.381Z,29.60
2017-07-21T09:17:31.824Z,29.30
2017-07-21T09:20:00.097Z,29.30
2017-07-21T09:22:27.521Z,29.50
2017-07-21T09:24:55.084Z,29.50
2017-07-21T09:27:23.276Z,30.20
2017-07-21T09:29:50.708Z,30.20
2017-07-21T09:32:18.204Z,30.00
2017-07-21T09:34:45.636Z,30.90
2017-07-21T09:37:13.095Z,30.70
2017-07-21T09:39:40.644Z,30.00
2017-07-21T09:42:08.097Z,30.60
2017-07-21T09:44:36.362Z,29.40
2017-07-21T09:47:03.829Z,29.40
2017-07-21T09:49:31.256Z,29.00
2017-07-21T09:51:59.527Z,29.80
2017-07-21T09:54:27.844Z,30.00
2017-07-21T09:56:55.286Z,30.00
2017-07-21T09:59:22.732Z,29.80
2017-07-21T10:01:50.164Z,29.20
2017-07-21T10:04:17.696Z,29.10
2017-07-21T10:06:45.129Z,28.60
2017-07-21T10:09:12.576Z,27.80
2017-07-21T10:11:40.054Z,27.30
2017-07-21T10:14:07.495Z,27.20
2017-07-21T10:16:35.040Z,27.10
2017-07-21T10:19:02.483Z,27.10
2017-07-21T10:21:29.916Z,27.10
2017-07-21T10:23:57.381Z,27.80
2017-07-21T10:26:24.817Z,27.80
2017-07-21T10:28:52.257Z,27.20
2017-07-21T10:31:19.689Z,27.40
2017-07-21T10:33:47.237Z,27.30
2017-07-21T10:36:14.673Z,27.10
2017-07-21T10:38:42.101Z,26.60
2017-07-21T10:41:09.590Z,28.00
2017-07-21T10:43:37.836Z,27.30
2017-07-21T10:46:05.371Z,27.20
2017-07-21T10:48:32.949Z,26.90
2017-07-21T10:51:00.460Z,27.10
2017-07-21T10:53:27.909Z,27.70
2017-07-21T10:55:55.333Z,27.60
2017-07-21T10:58:22.796Z,27.80
2017-07-21T11:00:50.220Z,28.40
2017-07-21T11:03:17.671Z,29.30
2017-07-21T11:05:45.115Z,29.60
2017-07-21T11:08:12.566Z,30.30
2017-07-21T11:10:40.013Z,31.60
2017-07-21T11:13:07.457Z,32.20
2017-07-21T11:15:34.904Z,33.80
2017-07-21T11:18:02.331Z,33.70
2017-07-21T11:20:29.995Z,33.70
2017-07-21T11:22:58.262Z,35.10
2017-07-21T11:25:25.691Z,35.10
2017-07-21T11:27:53.575Z,35.10
2017-07-21T11:30:21.025Z,35.20
2017-07-21T11:32:48.577Z,35.20
2017-07-21T11:35:16.055Z,34.70
2017-07-21T11:37:43.487Z,35.00
2017-07-21T11:40:10.954Z,35.60
2017-07-21T11:42:38.384Z,34.90
2017-07-21T11:45:05.841Z,35.30
2017-07-21T11:47:33.384Z,35.10
2017-07-21T11:50:03.277Z,34.50
2017-07-21T11:52:30.748Z,34.50
2017-07-21T11:54:58.259Z,34.30
2017-07-21T11:57:26.314Z,35.60
2017-07-21T11:59:53.777Z,34.00
2017-07-21T12:02:21.317Z,33.90
2017-07-21T12:04:48.861Z,34.20
2017-07-21T12:07:16.305Z,33.60
2017-07-21T12:09:43.869Z,33.50
2017-07-21T12:12:12.103Z,33.30
2017-07-21T12:14:39.664Z,33.30
2017-07-21T12:17:07.105Z,33.50
2017-07-21T12:19:34.639Z,33.70
2017-07-21T12:22:02.308Z,33.20
2017-07-21T12:24:30.499Z,33.00
2017-07-21T12:26:57.927Z,33.00
2017-07-21T12:29:25.377Z,32.70
2017-07-21T12:31:52.796Z,32.80
2017-07-21T12:34:21.004Z,32.70
2017-07-21T12:36:48.431Z,32.70
2017-07-21T12:39:16.039Z,32.70
2017-07-21T12:41:44.260Z,32.60
2017-07-21T12:44:11.762Z,32.60
2017-07-21T12:46:39.231Z,31.80
2017-07-21T12:49:06.669Z,30.90
2017-07-21T12:51:34.172Z,30.80
2017-07-21T12:54:01.745Z,31.10
2017-07-21T12:56:29.260Z,31.40
2017-07-21T12:58:56.692Z,31.50
2017-07-21T13:01:24.129Z,31.60
2017-07-21T13:03:51.594Z,31.00
2017-07-21T13:06:20.003Z,31.20
2017-07-21T13:08:47.457Z,30.60
2017-07-21T13:11:15.596Z,30.30
2017-07-21T13:13:43.177Z,30.60
2017-07-21T13:16:10.683Z,30.60
2017-07-21T13:18:38.135Z,30.70
2017-07-21T13:21:05.657Z,30.50
2017-07-21T13:23:33.880Z,30.80
2017-07-21T13:26:01.319Z,30.70
2017-07-21T13:28:28.743Z,30.60
2017-07-21T13:30:56.214Z,30.60
2017-07-21T13:33:24.076Z,30.40
2017-07-21T13:35:52.276Z,30.50
2017-07-21T13:38:19.717Z,30.50
2017-07-21T13:40:47.213Z,30.10
2017-07-21T13:43:14.679Z,29.50
2017-07-21T13:45:42.129Z,30.10
2017-07-21T13:48:09.708Z,30.00
2017-07-21T13:50:37.174Z,30.00
2017-07-21T13:53:04.612Z,29.90
2017-07-21T13:55:32.045Z,29.90
2017-07-21T13:57:59.505Z,29.60
2017-07-21T14:00:27.284Z,29.30
2017-07-21T14:02:56.174Z,29.90
2017-07-21T14:05:24.366Z,29.60
2017-07-21T14:07:51.797Z,29.60
2017-07-21T14:10:19.236Z,29.30
2017-07-21T14:12:46.997Z,29.70
2017-07-21T14:15:14.469Z,29.80
2017-07-21T14:17:42.091Z,29.20
2017-07-21T14:20:09.689Z,29.40
2017-07-21T14:22:37.898Z,29.70
2017-07-21T14:25:05.388Z,29.70
2017-07-21T14:27:33.220Z,29.70
2017-07-21T14:30:01.061Z,29.30
2017-07-21T14:32:28.597Z,29.20
2017-07-21T14:34:56.064Z,29.40
2017-07-21T14:37:23.504Z,29.50
2017-07-21T14:39:50.943Z,29.70
2017-07-21T14:42:18.480Z,30.10
2017-07-21T14:44:45.929Z,29.30
2017-07-21T14:47:13.474Z,29.60
2017-07-21T14:49:40.961Z,29.30
2017-07-21T14:52:09.791Z,29.10
2017-07-21T14:54:37.249Z,29.10
2017-07-21T14:57:04.675Z,29.10
2017-07-21T14:59:32.240Z,29.70
2017-07-21T15:01:59.672Z,29.60
2017-07-21T15:04:27.129Z,29.70
2017-07-21T15:06:55.351Z,30.50
2017-07-21T15:09:22.792Z,29.90
2017-07-21T15:11:50.383Z,30.00
2017-07-21T15:14:18.635Z,30.30
2017-07-21T15:16:46.115Z,30.30
2017-07-21T15:19:13.547Z,30.60
2017-07-21T15:21:41.075Z,30.90
2017-07-21T15:24:09.309Z,30.50
2017-07-21T15:26:36.740Z,30.40
2017-07-21T15:29:04.505Z,30.40
2017-07-21T15:31:31.958Z,30.60
2017-07-21T15:33:59.392Z,30.60
2017-07-21T15:36:26.840Z,30.60
2017-07-21T15:38:54.272Z,31.30
2017-07-21T15:41:21.728Z,30.90
2017-07-21T15:43:49.245Z,30.80
2017-07-21T15:46:16.677Z,31.00
2017-07-21T15:48:44.131Z,31.30
2017-07-21T15:51:11.593Z,31.20
2017-07-21T15:53:39.041Z,31.00
2017-07-21T15:56:06.469Z,31.20
2017-07-21T15:58:33.998Z,30.80
2017-07-21T16:01:01.532Z,31.10
2017-07-21T16:03:29.014Z,31.10
2017-07-21T16:05:57.223Z,31.80
2017-07-21T16:08:24.662Z,31.30
2017-07-21T16:10:52.113Z,31.50
2017-07-21T16:13:19.552Z,31.50
2017-07-21T16:15:47.053Z,31.80
2017-07-21T16:18:14.464Z,31.70
2017-07-21T16:20:41.954Z,31.60
2017-07-21T16:23:10.180Z,31.30
2017-07-21T16:25:37.621Z,31.80
2017-07-21T16:28:05.073Z,31.70
2017-07-21T16:30:32.503Z,31.90
2017-07-21T16:32:59.948Z,32.10
2017-07-21T16:35:27.396Z,31.90
2017-07-21T16:37:55.006Z,32.00
2017-07-21T16:40:22.502Z,32.10
2017-07-21T16:42:49.932Z,32.40
2017-07-21T16:45:17.368Z,32.90
2017-07-21T16:47:44.834Z,33.00
2017-07-21T16:50:13.081Z,33.50
2017-07-21T16:52:40.574Z,33.50
2017-07-21T16:55:08.045Z,34.20
2017-07-21T16:57:35.510Z,33.60
2017-07-21T17:00:02.962Z,34.00
2017-07-21T17:02:30.396Z,33.90
2017-07-21T17:04:58.026Z,34.10
2017-07-21T17:07:25.508Z,33.90
2017-07-21T17:09:53.749Z,34.60
2017-07-21T17:12:21.215Z,34.50
2017-07-21T17:14:49.813Z,34.80
2017-07-21T17:17:17.271Z,35.40
2017-07-21T17:19:44.713Z,36.50
2017-07-21T17:22:12.220Z,37.10
2017-07-21T17:24:39.684Z,38.20
2017-07-21T17:27:07.141Z,37.90
2017-07-21T17:29:34.627Z,38.10
2017-07-21T17:32:02.293Z,38.30
2017-07-21T17:34:31.668Z,38.40
2017-07-21T17:36:59.872Z,38.40
2017-07-21T17:39:27.307Z,38.30
2017-07-21T17:41:54.792Z,38.40
2017-07-21T17:44:22.240Z,38.40
2017-07-21T17:46:49.720Z,38.50
2017-07-21T17:49:17.155Z,38.70
2017-07-21T17:51:44.583Z,38.80
2017-07-21T17:54:12.024Z,38.80
2017-07-21T17:56:40.282Z,39.10
2017-07-21T17:59:07.825Z,39.00
2017-07-21T18:01:35.281Z,39.20
2017-07-21T18:04:03.484Z,40.30
2017-07-21T18:06:30.984Z,39.40
2017-07-21T18:08:59.248Z,40.00
2017-07-21T18:11:26.735Z,40.00
2017-07-21T18:13:54.219Z,40.10
2017-07-21T18:16:21.651Z,40.20
2017-07-21T18:18:49.097Z,40.50
2017-07-21T18:21:17.364Z,41.50
2017-07-21T18:23:44.815Z,40.80
2017-07-21T18:26:12.249Z,41.30
2017-07-21T18:28:39.697Z,41.60
2017-07-21T18:31:07.129Z,41.90
2017-07-21T18:33:34.563Z,42.00
2017-07-21T18:36:02.022Z,42.10
2017-07-21T18:38:30.237Z,42.40
2017-07-21T18:40:57.679Z,42.50
2017-07-21T18:43:25.325Z,42.70
2017-07-21T18:45:52.761Z,42.70
2017-07-21T18:48:20.887Z,42.70
2017-07-21T18:50:49.097Z,42.50
2017-07-21T18:53:16.528Z,42.50
2017-07-21T18:55:44.013Z,42.30
2017-07-21T18:58:11.452Z,42.50
2017-07-21T19:00:39.000Z,42.30
2017-07-21T19:03:06.432Z,42.40
2017-07-21T19:05:33.876Z,42.20
2017-07-21T19:08:01.333Z,42.50
2017-07-21T19:10:28.795Z,42.20
2017-07-21T19:12:56.997Z,42.30
2017-07-21T19:15:24.436Z,42.30
2017-07-21T19:17:51.869Z,42.30
2017-07-21T19:20:19.312Z,42.30
2017-07-21T19:22:46.751Z,42.70
2017-07-21T19:25:14.192Z,42.70
2017-07-21T19:27:41.632Z,42.80
2017-07-21T19:30:09.066Z,43.00
2017-07-21T19:32:36.514Z,43.30
2017-07-21T19:35:04.576Z,43.40
2017-07-21T19:37:32.412Z,43.50
2017-07-21T19:40:00.620Z,45.40
2017-07-21T19:42:28.057Z,45.20
2017-07-21T19:44:55.516Z,43.60
2017-07-21T19:47:22.937Z,43.70
2017-07-21T19:49:50.382Z,44.00
2017-07-21T19:52:17.799Z,43.70
2017-07-21T19:54:45.241Z,43.90
2017-07-21T19:57:12.687Z,44.20
2017-07-21T19:59:40.187Z,44.50
2017-07-21T20:02:07.751Z,44.50
2017-07-21T20:04:35.997Z,44.80
2017-07-21T20:07:03.432Z,44.70
2017-07-21T20:09:30.881Z,44.50
2017-07-21T20:11:58.312Z,44.50
2017-07-21T20:14:25.748Z,44.50
2017-07-21T20:16:53.175Z,44.90
2017-07-21T20:19:20.637Z,44.80
2017-07-21T20:21:48.083Z,45.10
2017-07-21T20:24:15.524Z,45.60
2017-07-21T20:26:42.943Z,45.00
2017-07-21T20:29:10.421Z,44.90
2017-07-21T20:31:37.849Z,45.00
2017-07-21T20:34:05.309Z,45.10
2017-07-21T20:36:32.755Z,45.10
2017-07-21T20:39:00.981Z,45.60
2017-07-21T20:41:28.423Z,45.10
2017-07-21T20:43:55.961Z,45.40
2017-07-21T20:46:23.392Z,45.40
2017-07-21T20:48:50.836Z,45.40
2017-07-21T20:51:18.281Z,45.70
2017-07-21T20:53:45.735Z,45.70
2017-07-21T20:56:13.162Z,45.90
2017-07-21T20:58:40.657Z,45.60
2017-07-21T21:01:08.197Z,45.80
2017-07-21T21:03:35.743Z,45.60
2017-07-21T21:06:03.224Z,45.90
2017-07-21T21:08:31.400Z,45.60
2017-07-21T21:10:58.854Z,45.60
2017-07-21T21:13:26.285Z,46.00
2017-07-21T21:15:53.753Z,46.10
2017-07-21T21:18:21.325Z,46.20
2017-07-21T21:20:48.834Z,46.40
2017-07-21T21:23:16.265Z,46.70
2017-07-21T21:25:43.713Z,46.90
2017-07-21T21:28:11.188Z,47.00
2017-07-21T21:30:38.653Z,47.00
2017-07-21T21:33:06.842Z,47.40
2017-07-21T21:35:34.305Z,47.40
2017-07-21T21:38:01.761Z,47.70
2017-07-21T21:40:29.224Z,47.90
2017-07-21T21:42:56.710Z,48.00
2017-07-21T21:45:24.131Z,47.10
2017-07-21T21:47:52.341Z,47.70
2017-07-21T21:50:19.767Z,47.70
2017-07-21T21:52:47.221Z,47.60
2017-07-21T21:55:14.660Z,47.80
2017-07-21T21:57:42.099Z,48.30
2017-07-21T22:00:09.541Z,48.40
2017-07-21T22:02:37.004Z,48.60
2017-07-21T22:05:04.509Z,49.30
2017-07-21T22:07:32.256Z,48.40
2017-07-21T22:10:00.492Z,49.40
2017-07-21T22:12:28.707Z,48.80
2017-07-21T22:14:56.159Z,48.80
2017-07-21T22:17:23.630Z,48.40
2017-07-21T22:19:51.062Z,49.10
2017-07-21T22:22:18.501Z,48.10
2017-07-21T22:24:45.932Z,48.00
2017-07-21T22:27:13.360Z,48.10
2017-07-21T22:29:40.806Z,47.80
2017-07-21T22:32:08.240Z,49.00
2017-07-21T22:34:35.693Z,49.70
2017-07-21T22:37:03.127Z,50.60
2017-07-21T22:39:30.556Z,51.10
2017-07-21T22:41:57.995Z,51.50
2017-07-21T22:44:25.441Z,52.00
2017-07-21T22:46:52.883Z,52.90
2017-07-21T22:49:20.315Z,53.60
2017-07-21T22:51:47.770Z,54.10
2017-07-21T22:54:15.217Z,54.60
2017-07-21T22:56:42.656Z,54.50
2017-07-21T22:59:10.130Z,54.90
2017-07-21T23:01:37.696Z,54.10
2017-07-21T23:04:05.479Z,53.00
2017-07-21T23:06:33.669Z,52.70
2017-07-21T23:09:01.141Z,52.70
2017-07-21T23:11:28.596Z,53.10
2017-07-21T23:13:56.020Z,53.60
2017-07-21T23:16:23.457Z,53.10
2017-07-21T23:18:50.893Z,52.10
2017-07-21T23:21:18.333Z,52.00
2017-07-21T23:23:45.777Z,52.80
2017-07-21T23:26:13.208Z,52.10
2017-07-21T23:28:40.646Z,51.90
2017-07-21T23:31:08.083Z,52.10
2017-07-21T23:33:35.507Z,52.30
2017-07-21T23:36:02.952Z,52.50
2017-07-21T23:38:30.385Z,52.60
2017-07-21T23:40:57.848Z,52.80
2017-07-21T23:43:25.336Z,52.70
2017-07-21T23:45:52.785Z,52.90
2017-07-21T23:48:20.232Z,53.10
2017-07-21T23:50:47.786Z,53.70
2017-07-21T23:53:15.984Z,54.10
2017-07-21T23:55:43.422Z,53.90
2017-07-21T23:58:10.917Z,54.10
